Sims, Illinois
Current Conditions -  °F | °C
As of 11:15 AM on Thursday 27 Nov 2014 (Local Time) from KFWC Reporting Station
Overcast Overcast  
Wind Chill: 21°   Ceiling: 1700
Heat Index: 30°   Visibility: 7mi
Dew Point: 25°   Wind: 10mph
Humidity: 81%   Direction: 300°WNW
Pressure: 30.45"   Gusts: 17mph
Location:  38.36°N, 88.53°W
Report Text: KFWC 271715Z AUTO 30009G15KT 7SM OVC017 M01/M04 A3045 RMK AO1 T10121041
Loading
Personal Weather Stations






























Interactive Weather Map New forecast layout! Learn more

10-Day Weather Forecast

Advertisements
Track Severe Weather on mobile